createdAt,value
2018-07-25T00:01:53.795Z,10.38
2018-07-25T00:04:22.263Z,10.55
2018-07-25T00:06:50.643Z,7.97
2018-07-25T00:09:19.067Z,6.85
2018-07-25T00:11:47.503Z,12.50
2018-07-25T00:14:15.939Z,9.98
2018-07-25T00:16:44.373Z,7.87
2018-07-25T00:19:13.049Z,9.85
2018-07-25T00:21:41.452Z,10.82
2018-07-25T00:24:09.921Z,10.03
2018-07-25T00:26:38.346Z,6.75
2018-07-25T00:29:06.889Z,9.00
2018-07-25T00:32:37.977Z,8.98
2018-07-25T00:35:06.432Z,6.80
2018-07-25T00:37:34.867Z,9.18
2018-07-25T00:40:03.434Z,10.75
2018-07-25T00:42:31.887Z,7.17
2018-07-25T00:45:00.349Z,7.75
2018-07-25T00:47:28.766Z,7.22
2018-07-25T00:49:57.217Z,6.97
2018-07-25T00:52:25.648Z,12.68
2018-07-25T00:54:53.769Z,9.10
2018-07-25T00:57:22.146Z,7.17
2018-07-25T00:59:50.565Z,9.00
2018-07-25T01:02:18.994Z,7.42
2018-07-25T01:04:47.434Z,12.45
2018-07-25T01:07:15.825Z,8.88
2018-07-25T01:09:44.319Z,9.30
2018-07-25T01:12:12.757Z,7.55
2018-07-25T01:14:41.172Z,7.42
2018-07-25T01:17:09.556Z,7.95
2018-07-25T01:19:38.032Z,8.10
2018-07-25T01:22:06.464Z,11.50
2018-07-25T01:24:34.906Z,8.73
2018-07-25T01:27:03.368Z,6.58
2018-07-25T01:29:31.780Z,7.65
2018-07-25T01:32:00.173Z,6.80
2018-07-25T01:34:28.643Z,11.90
2018-07-25T01:36:57.056Z,7.90
2018-07-25T01:39:25.474Z,7.50
2018-07-25T01:41:53.913Z,6.10
2018-07-25T01:44:22.852Z,10.80
2018-07-25T01:46:51.291Z,8.83
2018-07-25T01:49:19.454Z,9.15
2018-07-25T01:51:47.849Z,7.42
2018-07-25T01:54:16.273Z,10.05
2018-07-25T01:56:44.688Z,7.35
2018-07-25T01:59:13.092Z,8.73
2018-07-25T02:01:41.752Z,6.85
2018-07-25T02:04:10.364Z,7.25
2018-07-25T02:06:38.771Z,8.00
2018-07-25T02:09:09.625Z,12.85
2018-07-25T02:11:38.155Z,8.58
2018-07-25T02:14:06.651Z,9.50
2018-07-25T02:16:35.045Z,7.95
2018-07-25T02:19:03.498Z,6.83
2018-07-25T02:21:31.902Z,8.10
2018-07-25T02:24:00.294Z,8.75
2018-07-25T02:26:28.779Z,7.03
2018-07-25T02:28:57.192Z,9.43
2018-07-25T02:31:25.753Z,8.40
2018-07-25T02:33:59.477Z,9.03
2018-07-25T02:36:27.912Z,10.40
2018-07-25T02:38:56.502Z,6.78
2018-07-25T02:41:24.960Z,10.28
2018-07-25T02:43:53.463Z,10.53
2018-07-25T02:46:21.907Z,9.98
2018-07-25T02:48:50.294Z,6.50
2018-07-25T02:51:18.708Z,14.03
2018-07-25T02:53:47.138Z,7.70
2018-07-25T02:56:15.577Z,7.03
2018-07-25T02:58:44.009Z,8.80
2018-07-25T03:01:12.425Z,10.82
2018-07-25T03:03:40.820Z,13.72
2018-07-25T03:06:09.233Z,8.05
2018-07-25T03:08:37.320Z,9.60
2018-07-25T03:11:05.495Z,8.55
2018-07-25T03:13:33.943Z,11.57
2018-07-25T03:16:07.125Z,8.83
2018-07-25T03:18:35.580Z,7.08
2018-07-25T03:21:04.090Z,7.47
2018-07-25T03:23:33.713Z,10.35
2018-07-25T03:26:02.202Z,14.87
2018-07-25T03:28:30.587Z,15.53
2018-07-25T03:30:59.474Z,11.55
2018-07-25T03:33:28.034Z,10.75
2018-07-25T03:35:57.663Z,9.40
2018-07-25T03:38:26.834Z,7.60
2018-07-25T03:40:55.011Z,8.68
2018-07-25T03:43:23.433Z,10.25
2018-07-25T03:45:51.899Z,8.85
2018-07-25T03:48:20.314Z,6.92
2018-07-25T03:50:48.752Z,8.70
2018-07-25T03:53:17.173Z,8.05
2018-07-25T03:55:45.606Z,7.42
2018-07-25T03:58:14.092Z,9.83
2018-07-25T04:00:42.500Z,8.43
2018-07-25T04:03:10.917Z,6.70
2018-07-25T04:05:39.379Z,8.28
2018-07-25T04:08:07.836Z,7.33
2018-07-25T04:10:36.324Z,7.03
2018-07-25T04:13:04.872Z,7.70
2018-07-25T04:15:33.330Z,7.03
2018-07-25T04:18:01.461Z,7.45
2018-07-25T04:20:29.887Z,8.55
2018-07-25T04:22:58.315Z,7.40
2018-07-25T04:25:26.717Z,7.12
2018-07-25T04:27:55.128Z,6.67
2018-07-25T04:30:23.528Z,7.45
2018-07-25T04:32:51.965Z,8.10
2018-07-25T04:35:20.356Z,7.53
2018-07-25T04:37:48.760Z,6.70
2018-07-25T04:40:17.191Z,7.22
2018-07-25T04:42:45.626Z,5.97
2018-07-25T04:45:14.052Z,7.25
2018-07-25T04:47:42.489Z,7.22
2018-07-25T04:50:10.959Z,6.80
2018-07-25T04:52:39.428Z,7.80
2018-07-25T04:55:07.520Z,7.35
2018-07-25T04:57:36.015Z,7.80
2018-07-25T05:00:04.948Z,6.65
2018-07-25T05:02:33.175Z,6.80
2018-07-25T05:05:01.611Z,8.15
2018-07-25T05:07:30.040Z,7.25
2018-07-25T05:09:58.560Z,6.65
2018-07-25T05:12:26.969Z,8.10
2018-07-25T05:14:55.442Z,7.08
2018-07-25T05:17:23.618Z,6.58
2018-07-25T05:19:52.023Z,6.62
2018-07-25T05:22:20.457Z,7.17
2018-07-25T05:24:48.669Z,8.03
2018-07-25T05:27:16.793Z,6.00
2018-07-25T05:29:44.889Z,6.50
2018-07-25T05:32:13.332Z,6.20
2018-07-25T05:34:41.749Z,5.92
2018-07-25T05:37:10.270Z,6.37
2018-07-25T05:39:38.690Z,6.20
2018-07-25T05:42:07.181Z,5.65
2018-07-25T05:44:35.597Z,5.80
2018-07-25T05:47:04.160Z,5.95
2018-07-25T05:49:32.684Z,5.30
2018-07-25T05:52:01.059Z,6.62
2018-07-25T05:54:29.529Z,8.65
2018-07-25T05:56:57.974Z,6.70
2018-07-25T05:59:26.407Z,5.75
2018-07-25T06:01:54.911Z,5.33
2018-07-25T06:04:23.335Z,5.75
2018-07-25T06:06:51.802Z,5.95
2018-07-25T06:09:20.208Z,5.87
2018-07-25T06:11:48.315Z,5.53
2018-07-25T06:14:16.821Z,5.72
2018-07-25T06:16:45.168Z,7.12
2018-07-25T06:19:13.685Z,5.50
2018-07-25T06:21:42.089Z,5.55
2018-07-25T06:24:10.640Z,4.47
2018-07-25T06:26:39.045Z,7.67
2018-07-25T06:29:07.458Z,6.47
2018-07-25T06:31:35.853Z,4.45
2018-07-25T06:34:04.338Z,4.92
2018-07-25T06:36:32.756Z,4.17
2018-07-25T06:39:01.198Z,4.10
2018-07-25T06:41:29.641Z,3.90
2018-07-25T06:43:58.255Z,3.75
2018-07-25T06:46:26.648Z,4.53
2018-07-25T06:48:55.061Z,4.17
2018-07-25T06:51:23.527Z,5.03
2018-07-25T06:53:51.954Z,5.22
2018-07-25T06:56:20.344Z,3.72
2018-07-25T06:58:48.802Z,3.95
2018-07-25T07:01:17.609Z,4.00
2018-07-25T07:03:46.107Z,4.17
2018-07-25T07:06:14.552Z,4.05
2018-07-25T07:08:43.018Z,4.53
2018-07-25T07:11:11.419Z,4.05
2018-07-25T07:13:39.879Z,4.78
2018-07-25T07:16:08.289Z,4.70
2018-07-25T07:18:36.786Z,5.17
2018-07-25T07:21:05.234Z,4.40
2018-07-25T07:23:33.729Z,4.25
2018-07-25T07:26:02.191Z,4.40
2018-07-25T07:28:30.619Z,3.92
2018-07-25T07:30:59.163Z,4.35
2018-07-25T07:33:27.597Z,4.30
2018-07-25T07:35:55.992Z,4.12
2018-07-25T07:38:24.444Z,5.40
2018-07-25T07:40:52.860Z,4.87
2018-07-25T07:43:21.333Z,10.93
2018-07-25T07:45:49.736Z,4.35
2018-07-25T07:48:18.279Z,3.95
2018-07-25T07:50:46.704Z,5.08
2018-07-25T07:53:15.166Z,3.92
2018-07-25T07:55:43.599Z,3.77
2018-07-25T07:58:12.033Z,3.85
2018-07-25T08:00:40.464Z,4.05
2018-07-25T08:03:08.872Z,3.95
2018-07-25T08:05:37.296Z,3.92
2018-07-25T08:08:05.741Z,5.95
2018-07-25T08:10:34.240Z,3.80
2018-07-25T08:13:02.682Z,3.90
2018-07-25T08:15:31.163Z,4.22
2018-07-25T08:17:59.662Z,4.35
2018-07-25T08:20:28.079Z,4.72
2018-07-25T08:22:56.553Z,4.00
2018-07-25T08:25:24.972Z,4.62
2018-07-25T08:27:53.389Z,4.30
2018-07-25T08:30:21.850Z,4.47
2018-07-25T08:32:50.244Z,4.28
2018-07-25T08:35:18.704Z,4.22
2018-07-25T08:37:47.113Z,4.90
2018-07-25T08:40:15.589Z,4.70
2018-07-25T08:42:44.049Z,4.78
2018-07-25T08:45:12.484Z,4.58
2018-07-25T08:47:40.992Z,3.70
2018-07-25T08:50:10.066Z,4.37
2018-07-25T08:52:38.940Z,4.78
2018-07-25T08:55:07.326Z,6.45
2018-07-25T08:57:35.718Z,4.42
2018-07-25T09:00:05.045Z,4.85
2018-07-25T09:02:33.472Z,4.17
2018-07-25T09:05:01.904Z,4.70
2018-07-25T09:07:30.365Z,4.47
2018-07-25T09:09:58.823Z,4.30
2018-07-25T09:12:27.348Z,4.67
2018-07-25T09:14:55.773Z,5.37
2018-07-25T09:17:24.196Z,4.12
2018-07-25T09:19:52.680Z,3.85
2018-07-25T09:22:21.165Z,5.60
2018-07-25T09:24:49.584Z,4.33
2018-07-25T09:27:18.049Z,4.80
2018-07-25T09:29:46.466Z,4.15
2018-07-25T09:32:14.868Z,4.17
2018-07-25T09:34:43.373Z,4.72
2018-07-25T09:37:11.781Z,3.83
2018-07-25T09:39:40.279Z,4.22
2018-07-25T09:42:08.903Z,3.92
2018-07-25T09:44:37.409Z,3.45
2018-07-25T09:47:05.915Z,7.08
2018-07-25T09:49:33.972Z,4.42
2018-07-25T09:52:02.437Z,4.75
2018-07-25T09:54:30.519Z,4.55
2018-07-25T09:56:59.014Z,3.80
2018-07-25T09:59:27.457Z,3.40
2018-07-25T10:01:55.919Z,4.62
2018-07-25T10:04:24.324Z,3.92
2018-07-25T10:06:52.836Z,4.22
2018-07-25T10:09:21.252Z,3.95
2018-07-25T10:11:49.697Z,5.67
2018-07-25T10:14:18.109Z,3.83
2018-07-25T10:16:46.524Z,4.12
2018-07-25T10:19:14.944Z,4.05
2018-07-25T10:21:43.414Z,8.70
2018-07-25T10:24:11.844Z,18.75
2018-07-25T10:26:40.002Z,5.75
2018-07-25T10:29:08.413Z,4.58
2018-07-25T10:31:36.644Z,6.12
2018-07-25T10:34:05.076Z,4.62
2018-07-25T10:36:33.529Z,5.00
2018-07-25T10:39:02.057Z,4.40
2018-07-25T10:41:30.515Z,4.25
2018-07-25T10:43:58.920Z,4.42
2018-07-25T10:46:27.349Z,5.58
2018-07-25T10:48:55.506Z,5.03
2018-07-25T10:51:23.910Z,10.70
2018-07-25T10:53:52.383Z,4.25
2018-07-25T10:56:20.813Z,6.42
2018-07-25T10:58:49.283Z,4.58
2018-07-25T11:01:17.748Z,4.75
2018-07-25T11:03:46.179Z,3.85
2018-07-25T11:06:14.315Z,3.95
2018-07-25T11:08:42.804Z,10.38
2018-07-25T11:11:11.267Z,5.80
2018-07-25T11:13:39.732Z,4.50
2018-07-25T11:16:08.181Z,4.12
2018-07-25T11:18:36.612Z,4.05
2018-07-25T11:21:05.088Z,6.45
2018-07-25T11:23:33.568Z,4.87
2018-07-25T11:26:02.049Z,4.53
2018-07-25T11:28:30.523Z,5.40
2018-07-25T11:30:58.968Z,4.67
2018-07-25T11:33:27.404Z,7.25
2018-07-25T11:35:55.908Z,4.00
2018-07-25T11:38:24.353Z,3.75
2018-07-25T11:40:52.815Z,4.30
2018-07-25T11:43:21.288Z,6.50
2018-07-25T11:45:49.681Z,5.33
2018-07-25T11:48:18.140Z,4.17
2018-07-25T11:50:46.271Z,4.80
2018-07-25T11:53:14.729Z,4.95
2018-07-25T11:55:43.184Z,5.87
2018-07-25T11:58:11.272Z,5.65
2018-07-25T12:00:39.669Z,5.30
2018-07-25T12:03:08.132Z,10.03
2018-07-25T12:05:36.575Z,4.20
2018-07-25T12:08:05.368Z,5.00
2018-07-25T12:10:33.831Z,5.08
2018-07-25T12:13:02.424Z,14.90
2018-07-25T12:15:30.804Z,6.33
2018-07-25T12:17:58.982Z,4.10
2018-07-25T12:20:27.404Z,4.10
2018-07-25T12:22:55.896Z,3.98
2018-07-25T12:25:24.395Z,3.72
2018-07-25T12:27:53.479Z,3.62
2018-07-25T12:30:22.003Z,4.28
2018-07-25T12:32:50.459Z,3.80
2018-07-25T12:35:18.897Z,4.28
2018-07-25T12:37:47.487Z,4.37
2018-07-25T12:40:15.984Z,6.95
2018-07-25T12:42:45.101Z,4.10
2018-07-25T12:45:14.004Z,3.42
2018-07-25T12:47:42.441Z,4.62
2018-07-25T12:50:10.902Z,5.33
2018-07-25T12:52:39.357Z,3.80
2018-07-25T12:55:07.784Z,4.22
2018-07-25T12:57:36.294Z,3.75
2018-07-25T13:00:06.460Z,2.98
2018-07-25T13:02:34.939Z,2.87
2018-07-25T13:05:03.424Z,2.77
2018-07-25T13:07:32.048Z,4.47
2018-07-25T13:10:00.464Z,3.35
2018-07-25T13:12:28.905Z,3.55
2018-07-25T13:14:57.340Z,2.67
2018-07-25T13:17:25.806Z,3.95
2018-07-25T13:19:54.253Z,3.20
2018-07-25T13:22:22.735Z,3.15
2018-07-25T13:24:51.181Z,2.75
2018-07-25T13:27:19.655Z,2.83
2018-07-25T13:29:48.113Z,6.78
2018-07-25T13:32:16.513Z,5.65
2018-07-25T13:34:45.133Z,5.95
2018-07-25T13:37:13.553Z,2.92
2018-07-25T13:39:42.021Z,3.65
2018-07-25T13:42:10.520Z,3.02
2018-07-25T13:44:38.995Z,3.37
2018-07-25T13:47:07.506Z,2.83
2018-07-25T13:49:35.980Z,5.00
2018-07-25T13:52:04.486Z,2.95
2018-07-25T13:54:32.943Z,3.00
2018-07-25T13:57:01.068Z,4.95
2018-07-25T13:59:29.527Z,3.83
2018-07-25T14:01:57.936Z,3.42
2018-07-25T14:04:26.384Z,3.17
2018-07-25T14:06:54.849Z,3.20
2018-07-25T14:09:23.328Z,4.20
2018-07-25T14:11:51.864Z,3.95
2018-07-25T14:14:20.320Z,3.42
2018-07-25T14:16:48.799Z,2.77
2018-07-25T14:19:16.957Z,3.05
2018-07-25T14:21:45.415Z,3.42
2018-07-25T14:24:13.850Z,5.50
2018-07-25T14:26:41.968Z,3.20
2018-07-25T14:29:10.499Z,3.95
2018-07-25T14:31:38.922Z,3.52
2018-07-25T14:34:07.384Z,2.62
2018-07-25T14:36:35.814Z,3.80
2018-07-25T14:39:06.878Z,6.28
2018-07-25T14:41:35.355Z,2.25
2018-07-25T14:44:03.917Z,2.62
2018-07-25T14:46:32.039Z,2.33
2018-07-25T14:49:00.478Z,2.30
2018-07-25T14:51:28.970Z,3.02
2018-07-25T14:53:57.859Z,2.85
2018-07-25T14:56:26.305Z,5.28
2018-07-25T14:58:54.748Z,5.50
2018-07-25T15:01:23.262Z,2.85
2018-07-25T15:03:51.648Z,2.45
2018-07-25T15:06:20.066Z,2.15
2018-07-25T15:08:48.500Z,2.27
2018-07-25T15:11:17.053Z,3.00
2018-07-25T15:13:45.495Z,2.72
2018-07-25T15:16:14.102Z,4.80
2018-07-25T15:18:42.260Z,2.25
2018-07-25T15:21:10.933Z,6.17
2018-07-25T15:24:02.965Z,6.65
2018-07-25T15:26:31.412Z,5.37
2018-07-25T15:29:00.632Z,4.78
2018-07-25T15:31:29.085Z,4.58
2018-07-25T15:33:57.746Z,5.30
2018-07-25T15:36:51.680Z,4.15
2018-07-25T15:39:21.194Z,5.97
2018-07-25T15:41:50.417Z,4.20
2018-07-25T15:44:20.018Z,5.15
2018-07-25T15:46:48.473Z,3.65
2018-07-25T15:49:16.924Z,4.28
2018-07-25T15:51:45.412Z,3.17
2018-07-25T15:54:13.881Z,3.70
2018-07-25T15:56:42.473Z,3.42
2018-07-25T15:59:10.942Z,5.60
2018-07-25T16:01:39.420Z,4.22
2018-07-25T16:04:08.353Z,8.00
2018-07-25T16:06:36.858Z,5.70
2018-07-25T16:09:08.049Z,5.47
2018-07-25T16:11:36.744Z,4.10
2018-07-25T16:14:05.475Z,4.92
2018-07-25T16:16:33.956Z,3.72
2018-07-25T16:19:02.389Z,3.60
2018-07-25T16:21:30.836Z,4.20
2018-07-25T16:23:59.469Z,6.17
2018-07-25T16:26:27.933Z,5.15
2018-07-25T16:28:56.406Z,3.80
2018-07-25T16:31:24.874Z,4.75
2018-07-25T16:33:53.030Z,5.62
2018-07-25T16:36:21.493Z,3.47
2018-07-25T16:38:49.905Z,5.47
2018-07-25T16:41:18.396Z,4.33
2018-07-25T16:43:46.877Z,4.58
2018-07-25T16:46:15.456Z,4.22
2018-07-25T16:48:43.888Z,3.70
2018-07-25T16:51:12.046Z,3.67
2018-07-25T16:53:40.499Z,4.65
2018-07-25T16:56:08.907Z,4.78
2018-07-25T16:58:37.324Z,4.15
2018-07-25T17:01:05.876Z,5.17
2018-07-25T17:03:34.280Z,3.95
2018-07-25T17:06:02.750Z,7.12
2018-07-25T17:08:31.199Z,4.50
2018-07-25T17:10:59.699Z,4.00
2018-07-25T17:13:27.837Z,5.50
2018-07-25T17:15:56.323Z,4.75
2018-07-25T17:18:24.762Z,4.42
2018-07-25T17:20:53.553Z,4.17
2018-07-25T17:23:21.852Z,5.12
2018-07-25T17:25:50.302Z,4.40
2018-07-25T17:28:18.748Z,4.50
2018-07-25T17:30:47.374Z,4.25
2018-07-25T17:33:16.779Z,4.22
2018-07-25T17:35:45.232Z,4.05
2018-07-25T17:38:13.951Z,3.70
2018-07-25T17:40:42.486Z,3.55
2018-07-25T17:43:10.962Z,3.80
2018-07-25T17:45:39.392Z,4.65
2018-07-25T17:48:07.660Z,4.95
2018-07-25T17:50:36.130Z,4.72
2018-07-25T17:53:04.711Z,4.47
2018-07-25T17:55:33.210Z,6.08
2018-07-25T17:58:02.095Z,5.35
2018-07-25T18:00:30.557Z,4.95
2018-07-25T18:02:59.056Z,4.17
2018-07-25T18:05:27.528Z,4.67
2018-07-25T18:07:55.988Z,5.50
2018-07-25T18:10:24.437Z,5.15
2018-07-25T18:12:58.159Z,4.92
2018-07-25T18:15:26.593Z,6.17
2018-07-25T18:17:55.085Z,7.17
2018-07-25T18:20:23.538Z,15.18
2018-07-25T18:22:52.047Z,16.12
2018-07-25T18:25:20.436Z,7.90
2018-07-25T18:27:48.870Z,9.25
2018-07-25T18:30:17.324Z,19.55
2018-07-25T18:32:45.859Z,10.60
2018-07-25T18:35:14.329Z,10.10
2018-07-25T18:37:42.796Z,6.28
2018-07-25T18:40:11.287Z,15.40
2018-07-25T18:42:40.039Z,7.87
2018-07-25T18:45:08.548Z,6.70
2018-07-25T18:47:36.975Z,9.55
2018-07-25T18:50:07.144Z,5.67
2018-07-25T18:52:35.651Z,6.95
2018-07-25T18:55:04.144Z,6.12
2018-07-25T18:57:32.616Z,5.67
2018-07-25T19:00:00.746Z,6.17
2018-07-25T19:02:29.450Z,5.83
2018-07-25T19:04:57.899Z,6.92
2018-07-25T19:07:26.360Z,8.23
2018-07-25T19:09:54.779Z,5.75
2018-07-25T19:12:23.213Z,5.78
2018-07-25T19:14:56.924Z,5.53
2018-07-25T19:17:25.386Z,6.33
2018-07-25T19:19:53.777Z,5.33
2018-07-25T19:22:22.176Z,5.42
2018-07-25T19:24:50.604Z,5.90
2018-07-25T19:27:19.808Z,5.37
2018-07-25T19:29:48.240Z,6.20
2018-07-25T19:32:16.700Z,8.33
2018-07-25T19:34:44.875Z,5.35
2018-07-25T19:37:13.452Z,7.05
2018-07-25T19:39:41.572Z,5.53
2018-07-25T19:42:10.257Z,8.00
2018-07-25T19:44:38.765Z,5.72
2018-07-25T19:47:07.247Z,5.97
2018-07-25T19:49:36.012Z,5.80
2018-07-25T19:52:04.449Z,8.05
2018-07-25T19:54:33.182Z,8.93
2018-07-25T19:57:01.648Z,6.60
2018-07-25T19:59:30.148Z,9.08
2018-07-25T20:01:58.713Z,8.73
2018-07-25T20:04:27.116Z,6.33
2018-07-25T20:06:55.674Z,7.72
2018-07-25T20:09:25.531Z,9.70
2018-07-25T20:11:54.065Z,8.83
2018-07-25T20:14:28.205Z,6.42
2018-07-25T20:16:57.016Z,6.28
2018-07-25T20:19:25.621Z,9.18
2018-07-25T20:21:54.344Z,6.78
2018-07-25T20:24:23.100Z,5.20
2018-07-25T20:26:51.664Z,7.87
2018-07-25T20:29:20.803Z,6.50
2018-07-25T20:31:49.214Z,5.70
2018-07-25T20:34:17.767Z,5.92
2018-07-25T20:36:46.235Z,5.90
2018-07-25T20:39:15.058Z,7.17
2018-07-25T20:41:43.639Z,6.20
2018-07-25T20:44:12.384Z,5.25
2018-07-25T20:46:40.598Z,5.60
2018-07-25T20:49:09.224Z,5.50
2018-07-25T20:51:38.480Z,6.50
2018-07-25T20:54:07.451Z,6.40
2018-07-25T20:56:36.165Z,6.05
2018-07-25T20:59:04.808Z,5.33
2018-07-25T21:01:33.290Z,7.42
2018-07-25T21:07:00.821Z,6.55
2018-07-25T21:09:29.649Z,6.35
2018-07-25T21:11:58.099Z,11.00
2018-07-25T21:14:26.976Z,6.17
2018-07-25T21:16:55.994Z,7.10
2018-07-25T21:19:25.052Z,5.75
2018-07-25T21:21:53.926Z,4.80
2018-07-25T21:24:22.359Z,4.87
2018-07-25T21:26:50.769Z,5.37
2018-07-25T21:29:19.205Z,4.80
2018-07-25T21:31:47.592Z,4.03
2018-07-25T21:34:16.044Z,7.65
2018-07-25T21:36:44.448Z,4.75
2018-07-25T21:39:13.544Z,6.47
2018-07-25T21:41:42.311Z,4.72
2018-07-25T21:44:10.740Z,4.80
2018-07-25T21:46:39.183Z,4.83
2018-07-25T21:49:07.713Z,5.85
2018-07-25T21:51:36.189Z,5.10
2018-07-25T21:54:04.648Z,4.30
2018-07-25T21:56:33.105Z,4.60
2018-07-25T21:59:01.525Z,4.17
2018-07-25T22:01:29.953Z,4.05
2018-07-25T22:03:58.373Z,4.15
2018-07-25T22:06:26.793Z,4.70
2018-07-25T22:08:55.393Z,4.58
2018-07-25T22:11:23.784Z,4.60
2018-07-25T22:13:56.047Z,4.28
2018-07-25T22:16:25.433Z,4.90
2018-07-25T22:18:53.856Z,4.47
2018-07-25T22:21:22.261Z,4.45
2018-07-25T22:23:50.665Z,4.55
2018-07-25T22:26:19.104Z,4.95
2018-07-25T22:28:47.640Z,4.40
2018-07-25T22:31:16.113Z,5.22
2018-07-25T22:33:44.649Z,4.62
2018-07-25T22:36:13.086Z,4.78
2018-07-25T22:38:41.482Z,5.60
2018-07-25T22:41:09.949Z,4.40
2018-07-25T22:43:38.369Z,5.50
2018-07-25T22:46:06.826Z,4.65
2018-07-25T22:48:35.271Z,5.08
2018-07-25T22:51:03.685Z,6.28
2018-07-25T22:53:32.185Z,4.45
2018-07-25T22:56:00.648Z,4.85
2018-07-25T22:58:29.056Z,5.35
2018-07-25T23:00:57.729Z,4.90
2018-07-25T23:03:26.365Z,8.05
2018-07-25T23:05:54.873Z,4.75
2018-07-25T23:08:23.420Z,7.25
2018-07-25T23:10:51.869Z,4.90
2018-07-25T23:13:20.273Z,5.00
2018-07-25T23:15:48.700Z,4.67
2018-07-25T23:18:17.156Z,6.15
2018-07-25T23:20:45.551Z,4.47
2018-07-25T23:23:13.976Z,4.35
2018-07-25T23:25:42.384Z,5.60
2018-07-25T23:28:10.497Z,5.22
2018-07-25T23:30:38.947Z,6.78
2018-07-25T23:33:07.440Z,4.70
2018-07-25T23:35:36.700Z,4.62
2018-07-25T23:38:05.128Z,5.22
2018-07-25T23:40:33.587Z,5.03
2018-07-25T23:43:02.060Z,5.33
2018-07-25T23:45:30.171Z,5.70
2018-07-25T23:47:58.631Z,4.62
2018-07-25T23:50:27.213Z,4.70
2018-07-25T23:52:55.637Z,4.60
2018-07-25T23:55:24.036Z,4.62
2018-07-25T23:57:52.693Z,6.30
